createdAt,value
2019-03-20T00:00:34.991Z,0.48
2019-03-20T00:01:43.361Z,0.41
2019-03-20T00:02:33.439Z,0.45
2019-03-20T00:03:33.651Z,0.33
2019-03-20T00:04:34.488Z,0.34
2019-03-20T00:05:34.967Z,0.36
2019-03-20T00:06:34.198Z,0.39
2019-03-20T00:07:39.000Z,0.33
2019-03-20T00:08:50.529Z,0.31
2019-03-20T00:09:35.499Z,0.31
2019-03-20T00:10:36.868Z,0.34
2019-03-20T00:11:38.039Z,0.34
2019-03-20T00:12:35.668Z,0.33
2019-03-20T00:13:41.480Z,0.34
2019-03-20T00:14:36.591Z,0.33
2019-03-20T00:15:43.491Z,0.38
2019-03-20T00:16:39.473Z,0.34
2019-03-20T00:17:36.912Z,0.42
2019-03-20T00:18:42.082Z,0.41
2019-03-20T00:19:38.071Z,0.53
2019-03-20T00:20:38.991Z,0.41
2019-03-20T00:21:52.525Z,0.39
2019-03-20T00:22:37.802Z,0.45
2019-03-20T00:23:37.771Z,0.34
2019-03-20T00:24:45.023Z,0.49
2019-03-20T00:25:53.081Z,0.43
2019-03-20T00:26:39.060Z,0.46
2019-03-20T00:27:39.551Z,0.34
2019-03-20T00:28:40.521Z,0.42
2019-03-20T00:29:40.487Z,0.36
2019-03-20T00:30:40.981Z,0.30
2019-03-20T00:32:01.010Z,0.30
2019-03-20T00:32:40.057Z,0.33
2019-03-20T00:33:46.025Z,0.31
2019-03-20T00:35:00.896Z,0.16
2019-03-20T00:35:38.876Z,0.15
2019-03-20T00:36:39.082Z,0.27
2019-03-20T00:37:56.030Z,0.20
2019-03-20T00:38:39.467Z,0.12
2019-03-20T00:39:41.530Z,0.27
2019-03-20T00:40:43.578Z,0.13
2019-03-20T00:41:55.526Z,0.25
2019-03-20T00:42:44.067Z,0.18
2019-03-20T00:43:41.473Z,0.20
2019-03-20T00:44:40.533Z,0.13
2019-03-20T00:45:43.980Z,0.16
2019-03-20T00:46:43.975Z,0.13
2019-03-20T00:47:41.315Z,0.16
2019-03-20T00:48:44.473Z,0.18
2019-03-20T00:49:45.027Z,0.10
2019-03-20T00:50:45.028Z,0.13
2019-03-20T00:51:43.904Z,0.10
2019-03-20T00:52:50.992Z,0.00
2019-03-20T00:53:45.554Z,0.13
2019-03-20T00:54:42.127Z,0.02
2019-03-20T00:55:43.985Z,0.06
2019-03-20T00:56:43.491Z,0.05
2019-03-20T00:57:43.566Z,0.02
2019-03-20T00:58:46.530Z,0.07
2019-03-20T00:59:50.581Z,0.02
2019-03-20T01:00:46.046Z,0.03
2019-03-20T01:01:45.028Z,-0.05
2019-03-20T01:02:59.849Z,0.10
2019-03-20T01:03:47.671Z,-0.04
2019-03-20T01:05:12.523Z,0.09
2019-03-20T01:05:52.478Z,0.02
2019-03-20T01:06:48.409Z,-0.13
2019-03-20T01:08:00.031Z,-0.08
2019-03-20T01:08:48.075Z,-0.08
2019-03-20T01:09:49.146Z,-0.11
2019-03-20T01:10:46.529Z,-0.05
2019-03-20T01:11:46.565Z,-0.06
2019-03-20T01:12:52.033Z,-0.04
2019-03-20T01:13:49.174Z,-0.01
2019-03-20T01:15:01.091Z,-0.08
2019-03-20T01:16:01.528Z,-0.09
2019-03-20T01:16:46.510Z,-0.12
2019-03-20T01:17:50.979Z,-0.06
2019-03-20T01:18:48.046Z,-0.11
2019-03-20T01:19:48.030Z,-0.08
2019-03-20T01:21:10.979Z,-0.11
2019-03-20T01:21:48.483Z,-0.06
2019-03-20T01:22:47.730Z,-0.16
2019-03-20T01:23:50.524Z,-0.08
2019-03-20T01:24:49.025Z,-0.18
2019-03-20T01:25:54.991Z,-0.16
2019-03-20T01:26:54.692Z,-0.26
2019-03-20T01:28:08.618Z,-0.23
2019-03-20T01:28:49.530Z,-0.29
2019-03-20T01:31:22.704Z,-0.23
2019-03-20T01:32:21.535Z,-0.34
2019-03-20T01:33:20.096Z,-0.34
2019-03-20T01:34:20.184Z,-0.37
2019-03-20T01:35:24.350Z,-0.26
2019-03-20T01:36:20.612Z,-0.34
2019-03-20T01:37:21.458Z,-0.48
2019-03-20T01:38:22.488Z,-0.37
2019-03-20T01:39:24.775Z,-0.45
2019-03-20T01:40:22.991Z,-0.47
2019-03-20T01:41:21.478Z,-0.41
2019-03-20T01:42:22.502Z,-0.41
2019-03-20T01:43:21.837Z,-0.31
2019-03-20T01:44:34.965Z,-0.44
2019-03-20T01:45:24.099Z,-0.34
2019-03-20T01:46:23.129Z,-0.42
2019-03-20T01:47:27.185Z,-0.27
2019-03-20T01:48:24.480Z,-0.41
2019-03-20T01:49:24.036Z,-0.37
2019-03-20T01:50:27.045Z,-0.50
2019-03-20T01:51:24.413Z,-0.45
2019-03-20T01:52:27.487Z,-0.44
2019-03-20T01:53:40.971Z,-0.37
2019-03-20T01:54:25.440Z,-0.33
2019-03-20T01:55:28.063Z,-0.27
2019-03-20T01:56:24.147Z,-0.23
2019-03-20T01:57:26.946Z,-0.27
2019-03-20T01:58:24.429Z,-0.27
2019-03-20T01:59:24.630Z,-0.29
2019-03-20T02:00:26.494Z,-0.36
2019-03-20T02:01:48.446Z,-0.51
2019-03-20T02:02:27.044Z,-0.52
2019-03-20T02:03:26.432Z,-0.50
2019-03-20T02:04:30.991Z,-0.47
2019-03-20T02:05:35.323Z,-0.57
2019-03-20T02:08:00.025Z,-0.60
2019-03-20T02:08:59.577Z,-0.60
2019-03-20T02:09:59.524Z,-0.65
2019-03-20T02:11:00.060Z,-0.63
2019-03-20T02:12:00.049Z,-0.69
2019-03-20T02:13:06.021Z,-0.62
2019-03-20T02:14:00.520Z,-0.65
2019-03-20T02:15:00.567Z,-0.57
2019-03-20T02:16:01.489Z,-0.70
2019-03-20T02:17:01.040Z,-0.65
2019-03-20T02:17:59.371Z,-0.73
2019-03-20T02:19:03.956Z,-0.66
2019-03-20T02:20:01.557Z,-0.78
2019-03-20T02:21:06.589Z,-0.80
2019-03-20T02:22:00.111Z,-0.73
2019-03-20T02:23:00.338Z,-0.70
2019-03-20T02:24:00.418Z,-0.72
2019-03-20T02:25:02.523Z,-0.80
2019-03-20T02:26:02.775Z,-0.86
2019-03-20T02:27:02.525Z,-0.72
2019-03-20T02:28:03.027Z,-0.77
2019-03-20T02:29:03.118Z,-0.75
2019-03-20T02:30:03.567Z,-0.81
2019-03-20T02:31:03.542Z,-0.69
2019-03-20T02:32:04.005Z,-0.66
2019-03-20T02:33:03.990Z,-0.55
2019-03-20T02:34:04.476Z,-0.55
2019-03-20T02:35:04.985Z,-0.62
2019-03-20T02:36:06.076Z,-0.52
2019-03-20T02:37:04.568Z,-0.54
2019-03-20T02:38:23.772Z,-0.62
2019-03-20T02:39:04.490Z,-0.52
2019-03-20T02:40:05.981Z,-0.50
2019-03-20T02:41:05.233Z,-0.50
2019-03-20T02:42:05.982Z,-0.50
2019-03-20T02:43:11.520Z,-0.41
2019-03-20T02:44:06.525Z,-0.44
2019-03-20T02:45:11.530Z,-0.36
2019-03-20T02:46:07.572Z,-0.31
2019-03-20T02:47:04.984Z,-0.33
2019-03-20T02:48:07.966Z,-0.36
2019-03-20T02:49:04.442Z,-0.33
2019-03-20T02:50:20.531Z,-0.18
2019-03-20T02:51:06.539Z,-0.34
2019-03-20T02:52:05.986Z,-0.27
2019-03-20T02:53:09.103Z,-0.26
2019-03-20T02:54:07.986Z,-0.23
2019-03-20T02:55:06.481Z,-0.27
2019-03-20T02:56:21.530Z,-0.27
2019-03-20T02:57:05.899Z,-0.23
2019-03-20T02:58:06.981Z,-0.23
2019-03-20T02:59:06.224Z,-0.18
2019-03-20T03:00:28.404Z,-0.24
2019-03-20T03:01:06.568Z,-0.26
2019-03-20T03:02:08.524Z,-0.26
2019-03-20T03:03:08.532Z,-0.34
2019-03-20T03:04:09.282Z,-0.30
2019-03-20T03:05:14.031Z,-0.29
2019-03-20T03:06:10.541Z,-0.34
2019-03-20T03:07:07.614Z,-0.31
2019-03-20T03:08:13.589Z,-0.33
2019-03-20T03:09:07.980Z,-0.34
2019-03-20T03:10:08.076Z,-0.42
2019-03-20T03:11:16.065Z,-0.44
2019-03-20T03:12:13.500Z,-0.51
2019-03-20T03:13:08.459Z,-0.45
2019-03-20T03:14:10.681Z,-0.47
2019-03-20T03:15:12.526Z,-0.48
2019-03-20T03:16:08.962Z,-0.51
2019-03-20T03:17:16.035Z,-0.48
2019-03-20T03:18:11.023Z,-0.63
2019-03-20T03:19:11.060Z,-0.60
2019-03-20T03:20:25.657Z,-0.51
2019-03-20T03:21:11.535Z,-0.55
2019-03-20T03:22:10.878Z,-0.44
2019-03-20T03:23:12.031Z,-0.60
2019-03-20T03:24:11.024Z,-0.50
2019-03-20T03:25:10.369Z,-0.55
2019-03-20T03:26:13.489Z,-0.59
2019-03-20T03:27:12.104Z,-0.54
2019-03-20T03:28:10.947Z,-0.60
2019-03-20T03:29:11.688Z,-0.55
2019-03-20T03:30:13.045Z,-0.75
2019-03-20T03:31:13.469Z,-0.65
2019-03-20T03:32:13.524Z,-0.63
2019-03-20T03:33:12.748Z,-0.59
2019-03-20T03:34:13.520Z,-0.59
2019-03-20T03:35:17.338Z,-0.55
2019-03-20T03:36:21.334Z,-0.55
2019-03-20T03:37:12.507Z,-0.65
2019-03-20T03:38:14.522Z,-0.68
2019-03-20T03:39:16.522Z,-0.62
2019-03-20T03:40:13.038Z,-0.59
2019-03-20T03:41:20.050Z,-0.52
2019-03-20T03:42:22.046Z,-0.63
2019-03-20T03:43:13.406Z,-0.63
2019-03-20T03:44:38.032Z,-0.72
2019-03-20T03:45:16.487Z,-0.65
2019-03-20T03:46:15.477Z,-0.60
2019-03-20T03:47:16.068Z,-0.60
2019-03-20T03:48:17.963Z,-0.60
2019-03-20T03:49:16.023Z,-0.68
2019-03-20T03:50:18.981Z,-0.63
2019-03-20T03:51:14.712Z,-0.66
2019-03-20T03:52:16.525Z,-0.69
2019-03-20T03:53:15.153Z,-0.59
2019-03-20T03:54:15.292Z,-0.57
2019-03-20T03:55:16.011Z,-0.57
2019-03-20T03:56:17.530Z,-0.62
2019-03-20T03:57:17.714Z,-0.80
2019-03-20T03:58:16.309Z,-0.70
2019-03-20T03:59:18.022Z,-0.65
2019-03-20T04:00:34.048Z,-0.73
2019-03-20T04:01:16.534Z,-0.69
2019-03-20T04:02:18.546Z,-0.70
2019-03-20T04:03:18.846Z,-0.73
2019-03-20T04:04:19.025Z,-0.72
2019-03-20T04:05:17.282Z,-0.78
2019-03-20T04:06:35.025Z,-0.86
2019-03-20T04:07:33.522Z,-0.78
2019-03-20T04:08:19.521Z,-0.81
2019-03-20T04:09:17.848Z,-0.87
2019-03-20T04:10:18.099Z,-0.99
2019-03-20T04:11:20.902Z,-0.84
2019-03-20T04:12:20.983Z,-0.87
2019-03-20T04:13:20.521Z,-0.86
2019-03-20T04:14:20.718Z,-0.89
2019-03-20T04:15:20.535Z,-0.86
2019-03-20T04:16:27.018Z,-0.78
2019-03-20T04:17:19.338Z,-0.92
2019-03-20T04:18:21.027Z,-0.91
2019-03-20T04:19:27.568Z,-0.91
2019-03-20T04:20:20.840Z,-0.89
2019-03-20T04:21:20.054Z,-0.99
2019-03-20T04:22:24.028Z,-0.99
2019-03-20T04:23:21.490Z,-1.06
2019-03-20T04:24:36.526Z,-1.09
2019-03-20T04:25:22.548Z,-0.99
2019-03-20T04:26:22.544Z,-0.99
2019-03-20T04:27:25.027Z,-0.97
2019-03-20T04:28:38.530Z,-0.99
2019-03-20T04:29:22.483Z,-0.87
2019-03-20T04:30:25.571Z,-0.97
2019-03-20T04:31:30.051Z,-0.92
2019-03-20T04:32:23.966Z,-0.92
2019-03-20T04:33:45.022Z,-0.95
2019-03-20T04:34:24.970Z,-0.87
2019-03-20T04:35:30.592Z,-0.87
2019-03-20T04:36:25.068Z,-0.97
2019-03-20T04:37:33.670Z,-1.05
2019-03-20T04:38:25.032Z,-1.03
2019-03-20T04:39:23.246Z,-0.99
2019-03-20T04:40:31.044Z,-0.99
2019-03-20T04:41:24.595Z,-1.12
2019-03-20T04:42:39.523Z,-1.06
2019-03-20T04:43:32.493Z,-1.05
2019-03-20T04:44:26.464Z,-1.09
2019-03-20T04:45:26.038Z,-1.06
2019-03-20T04:46:25.572Z,-1.06
2019-03-20T04:47:49.523Z,-1.07
2019-03-20T04:48:25.702Z,-1.15
2019-03-20T04:49:28.519Z,-1.10
2019-03-20T04:50:26.120Z,-1.17
2019-03-20T04:51:26.351Z,-1.21
2019-03-20T04:52:29.051Z,-1.18
2019-03-20T04:53:27.517Z,-1.24
2019-03-20T04:54:27.517Z,-1.15
2019-03-20T04:55:29.526Z,-1.21
2019-03-20T04:56:26.085Z,-1.27
2019-03-20T04:57:28.063Z,-1.20
2019-03-20T04:58:30.068Z,-1.24
2019-03-20T04:59:32.528Z,-1.25
2019-03-20T05:00:28.554Z,-1.21
2019-03-20T05:01:34.532Z,-1.17
2019-03-20T05:02:27.138Z,-1.24
2019-03-20T05:03:35.493Z,-1.17
2019-03-20T05:04:29.401Z,-1.23
2019-03-20T05:05:29.021Z,-1.15
2019-03-20T05:06:29.522Z,-1.17
2019-03-20T05:07:28.481Z,-1.17
2019-03-20T05:08:28.960Z,-1.18
2019-03-20T05:09:32.017Z,-1.17
2019-03-20T05:10:28.334Z,-1.20
2019-03-20T05:11:29.568Z,-1.15
2019-03-20T05:12:28.650Z,-1.24
2019-03-20T05:13:29.875Z,-1.15
2019-03-20T05:14:30.963Z,-1.24
2019-03-20T05:15:33.023Z,-1.25
2019-03-20T05:16:31.074Z,-1.25
2019-03-20T05:17:31.024Z,-1.31
2019-03-20T05:18:32.478Z,-1.24
2019-03-20T05:19:34.977Z,-1.24
2019-03-20T05:20:30.070Z,-1.20
2019-03-20T05:21:32.996Z,-1.24
2019-03-20T05:22:32.346Z,-1.21
2019-03-20T05:23:32.990Z,-1.13
2019-03-20T05:24:46.579Z,-1.10
2019-03-20T05:25:35.019Z,-1.18
2019-03-20T05:26:33.019Z,-1.12
2019-03-20T05:27:33.033Z,-1.15
2019-03-20T05:28:33.024Z,-1.15
2019-03-20T05:29:31.594Z,-1.10
2019-03-20T05:30:33.517Z,-1.25
2019-03-20T05:31:34.479Z,-1.20
2019-03-20T05:32:35.520Z,-1.13
2019-03-20T05:33:33.471Z,-1.12
2019-03-20T05:34:36.338Z,-1.09
2019-03-20T05:35:32.628Z,-1.12
2019-03-20T05:36:48.534Z,-1.06
2019-03-20T05:37:44.515Z,-0.95
2019-03-20T05:38:39.584Z,-1.07
2019-03-20T05:39:34.100Z,-0.99
2019-03-20T05:40:34.981Z,-0.94
2019-03-20T05:41:35.023Z,-0.97
2019-03-20T05:42:57.469Z,-0.99
2019-03-20T05:43:40.968Z,-0.94
2019-03-20T05:44:35.474Z,-0.87
2019-03-20T05:45:34.061Z,-0.87
2019-03-20T05:46:38.167Z,-0.91
2019-03-20T05:47:38.967Z,-0.86
2019-03-20T05:48:37.030Z,-0.81
2019-03-20T05:49:55.861Z,-0.83
2019-03-20T05:50:42.531Z,-0.70
2019-03-20T05:51:40.468Z,-0.66
2019-03-20T05:52:51.017Z,-0.63
2019-03-20T05:53:37.560Z,-0.55
2019-03-20T05:54:37.103Z,-0.62
2019-03-20T05:55:35.854Z,-0.59
2019-03-20T05:57:13.033Z,-0.54
2019-03-20T05:57:52.043Z,-0.51
2019-03-20T05:58:38.030Z,-0.59
2019-03-20T05:59:40.022Z,-0.51
2019-03-20T06:00:36.676Z,-0.42
2019-03-20T06:01:37.478Z,-0.44
2019-03-20T06:02:45.015Z,-0.54
2019-03-20T06:03:41.039Z,-0.45
2019-03-20T06:04:39.015Z,-0.37
2019-03-20T06:05:53.525Z,-0.30
2019-03-20T06:06:39.516Z,-0.27
2019-03-20T06:07:37.911Z,-0.33
2019-03-20T06:08:38.055Z,-0.30
2019-03-20T06:09:38.259Z,-0.13
2019-03-20T06:10:40.468Z,-0.22
2019-03-20T06:11:38.727Z,-0.16
2019-03-20T06:12:41.490Z,-0.12
2019-03-20T06:13:38.944Z,-0.12
2019-03-20T06:14:40.169Z,-0.08
2019-03-20T06:15:55.043Z,-0.06
2019-03-20T06:17:16.021Z,0.02
2019-03-20T06:17:40.571Z,0.06
2019-03-20T06:18:41.516Z,0.07
2019-03-20T06:19:42.468Z,0.05
2019-03-20T06:20:42.021Z,0.20
2019-03-20T06:21:40.340Z,0.06
2019-03-20T06:22:42.533Z,0.16
2019-03-20T06:23:40.795Z,0.16
2019-03-20T06:24:46.571Z,0.30
2019-03-20T06:25:41.050Z,0.43
2019-03-20T06:26:57.061Z,0.30
2019-03-20T06:27:43.061Z,0.30
2019-03-20T06:28:43.559Z,0.39
2019-03-20T06:29:43.546Z,0.36
2019-03-20T06:30:41.941Z,0.36
2019-03-20T06:31:44.021Z,0.38
2019-03-20T06:32:42.335Z,0.34
2019-03-20T06:33:42.564Z,0.42
2019-03-20T06:34:44.481Z,0.39
2019-03-20T06:35:44.975Z,0.45
2019-03-20T06:36:42.956Z,0.67
2019-03-20T06:37:47.054Z,1.12
2019-03-20T06:38:45.046Z,1.42
2019-03-20T06:39:47.014Z,1.93
2019-03-20T06:40:45.514Z,2.49
2019-03-20T06:41:45.572Z,3.05
2019-03-20T06:42:45.533Z,3.18
2019-03-20T06:43:46.063Z,3.70
2019-03-20T06:44:46.021Z,3.83
2019-03-20T06:45:48.023Z,4.06
2019-03-20T06:46:44.610Z,4.62
2019-03-20T06:47:44.810Z,4.86
2019-03-20T06:48:46.519Z,5.32
2019-03-20T06:49:47.016Z,5.71
2019-03-20T06:50:47.019Z,5.75
2019-03-20T06:51:47.026Z,6.18
2019-03-20T06:52:47.518Z,6.29
2019-03-20T06:53:45.719Z,6.72
2019-03-20T06:54:45.914Z,6.94
2019-03-20T06:55:46.122Z,7.37
2019-03-20T06:56:46.356Z,7.35
2019-03-20T06:57:50.515Z,7.71
2019-03-20T06:58:46.765Z,7.74
2019-03-20T06:59:53.543Z,7.90
2019-03-20T07:00:48.005Z,7.93
2019-03-20T07:01:47.238Z,8.18
2019-03-20T07:02:49.048Z,8.54
2019-03-20T07:03:47.535Z,8.79
2019-03-20T07:04:47.738Z,8.87
2019-03-20T07:05:47.958Z,8.75
2019-03-20T07:06:48.174Z,9.16
2019-03-20T07:07:48.385Z,8.87
2019-03-20T07:08:48.604Z,9.10
2019-03-20T07:09:50.538Z,9.09
2019-03-20T07:10:48.878Z,8.90
2019-03-20T07:11:51.017Z,8.83
2019-03-20T07:12:51.030Z,9.16
2019-03-20T07:13:50.625Z,9.43
2019-03-20T07:14:49.585Z,9.97
2019-03-20T07:15:49.785Z,9.93
2019-03-20T07:16:49.997Z,9.60
2019-03-20T07:17:50.207Z,9.31
2019-03-20T07:18:50.423Z,9.38
2019-03-20T07:19:50.643Z,9.27
2019-03-20T07:20:50.859Z,9.31
2019-03-20T07:21:51.094Z,9.57
2019-03-20T07:22:53.014Z,9.42
2019-03-20T07:23:51.479Z,9.45
2019-03-20T07:24:51.693Z,9.79
2019-03-20T07:25:51.914Z,9.93
2019-03-20T07:26:54.015Z,10.09
2019-03-20T07:27:52.389Z,10.53
2019-03-20T07:28:52.598Z,10.68
2019-03-20T07:29:52.815Z,10.76
2019-03-20T07:31:00.550Z,11.14
2019-03-20T07:31:53.233Z,10.83
2019-03-20T07:32:53.435Z,10.63
2019-03-20T07:33:53.650Z,11.09
2019-03-20T07:34:53.869Z,11.10
2019-03-20T07:35:58.018Z,11.14
2019-03-20T07:36:55.236Z,10.92
2019-03-20T07:37:56.201Z,10.88
2019-03-20T07:38:56.011Z,10.91
2019-03-20T07:39:57.479Z,10.88
2019-03-20T07:40:56.515Z,10.21
2019-03-20T07:41:57.033Z,10.43
2019-03-20T07:42:55.270Z,10.66
2019-03-20T07:43:56.481Z,10.62
2019-03-20T07:44:58.510Z,11.06
2019-03-20T07:45:57.527Z,10.44
2019-03-20T07:46:56.599Z,10.51
2019-03-20T07:47:56.205Z,10.63
2019-03-20T07:49:00.024Z,11.07
2019-03-20T07:49:58.516Z,11.54
2019-03-20T07:50:56.736Z,11.75
2019-03-20T07:51:59.498Z,12.19
2019-03-20T07:53:01.068Z,12.11
2019-03-20T07:53:58.269Z,12.06
2019-03-20T07:54:58.363Z,12.27
2019-03-20T07:56:13.521Z,12.26
2019-03-20T07:57:03.470Z,12.12
2019-03-20T07:58:05.574Z,12.59
2019-03-20T07:58:58.178Z,12.59
2019-03-20T08:00:00.018Z,12.60
2019-03-20T08:00:58.620Z,11.94
2019-03-20T08:02:28.089Z,12.34
2019-03-20T08:03:01.021Z,12.30
2019-03-20T08:03:59.219Z,12.16
2019-03-20T08:05:02.025Z,12.33
2019-03-20T08:06:01.114Z,11.94
2019-03-20T08:07:00.732Z,12.19
2019-03-20T08:08:08.023Z,12.59
2019-03-20T08:09:08.985Z,12.87
2019-03-20T08:10:04.045Z,13.47
2019-03-20T08:11:04.320Z,13.44
2019-03-20T08:12:00.560Z,13.25
2019-03-20T08:13:03.518Z,13.41
2019-03-20T08:14:04.853Z,13.52
2019-03-20T08:15:02.000Z,13.67
2019-03-20T08:16:04.045Z,13.47
2019-03-20T08:17:06.976Z,13.91
2019-03-20T08:18:03.524Z,13.76
2019-03-20T08:19:03.541Z,13.43
2019-03-20T08:20:02.007Z,13.67
2019-03-20T08:21:05.513Z,14.24
2019-03-20T08:22:02.460Z,14.65
2019-03-20T08:23:10.525Z,15.13
2019-03-20T08:24:10.531Z,15.60
2019-03-20T08:25:06.556Z,16.06
2019-03-20T08:26:03.159Z,15.60
2019-03-20T08:27:03.318Z,15.63
2019-03-20T08:28:05.503Z,15.06
2019-03-20T08:29:05.525Z,15.06
2019-03-20T08:31:38.936Z,14.88
2019-03-20T08:32:37.405Z,14.60
2019-03-20T08:33:39.930Z,14.43
2019-03-20T08:34:39.915Z,14.06
2019-03-20T08:35:38.280Z,13.84
2019-03-20T08:36:40.384Z,13.52
2019-03-20T08:37:38.436Z,13.95
2019-03-20T08:38:38.383Z,14.04
2019-03-20T08:39:52.888Z,13.94
2019-03-20T08:41:01.910Z,14.09
2019-03-20T08:41:39.388Z,14.56
2019-03-20T08:42:40.337Z,14.99
2019-03-20T08:43:39.396Z,14.57
2019-03-20T08:44:42.026Z,14.37
2019-03-20T08:45:44.891Z,14.35
2019-03-20T08:46:38.397Z,14.42
2019-03-20T08:47:39.364Z,14.60
2019-03-20T08:48:42.400Z,15.30
2019-03-20T08:49:46.467Z,15.63
2019-03-20T08:50:41.246Z,15.79
2019-03-20T08:51:40.390Z,16.09
2019-03-20T08:52:39.493Z,16.20
2019-03-20T08:53:41.439Z,16.37
2019-03-20T08:54:41.393Z,16.71
2019-03-20T08:55:40.109Z,16.92
2019-03-20T08:56:44.055Z,17.13
2019-03-20T08:57:40.605Z,17.70
2019-03-20T08:58:44.386Z,17.36
2019-03-20T08:59:41.911Z,17.57
2019-03-20T09:00:52.939Z,17.59
2019-03-20T09:01:41.149Z,17.20
2019-03-20T09:02:46.881Z,17.17
2019-03-20T09:03:44.348Z,17.08
2019-03-20T09:04:45.132Z,17.63
2019-03-20T09:05:45.413Z,17.79
2019-03-20T09:06:42.062Z,17.89
2019-03-20T09:07:47.524Z,17.97
2019-03-20T09:08:44.544Z,17.38
2019-03-20T09:09:44.431Z,17.87
2019-03-20T09:10:45.348Z,17.99
2019-03-20T09:11:42.957Z,17.59
2019-03-20T09:12:44.931Z,17.79
2019-03-20T09:13:46.891Z,17.85
2019-03-20T09:14:45.440Z,17.53
2019-03-20T09:15:44.182Z,17.89
2019-03-20T09:16:46.757Z,17.91
2019-03-20T09:17:44.938Z,18.22
2019-03-20T09:18:45.343Z,18.12
2019-03-20T09:19:45.503Z,18.28
2019-03-20T09:20:52.395Z,18.10
2019-03-20T09:21:46.867Z,17.89
2019-03-20T09:22:48.895Z,17.54
2019-03-20T09:23:47.923Z,17.62
2019-03-20T09:24:48.052Z,17.41
2019-03-20T09:25:45.547Z,17.59
2019-03-20T09:26:48.405Z,17.62
2019-03-20T09:27:47.893Z,17.63
2019-03-20T09:28:46.837Z,17.63
2019-03-20T09:29:48.399Z,17.79
2019-03-20T09:30:48.420Z,17.97
2019-03-20T09:31:46.771Z,17.97
2019-03-20T09:33:02.946Z,18.52
2019-03-20T09:33:48.202Z,18.33
2019-03-20T09:34:47.886Z,18.59
2019-03-20T09:35:48.725Z,18.67
2019-03-20T09:36:50.341Z,18.36
2019-03-20T09:37:52.363Z,19.11
2019-03-20T09:38:49.949Z,19.58
2019-03-20T09:39:49.207Z,19.55
2019-03-20T09:40:48.551Z,18.62
2019-03-20T09:41:50.492Z,18.95
2019-03-20T09:42:50.414Z,19.68
2019-03-20T09:43:50.394Z,20.27
2019-03-20T09:44:49.252Z,20.42
2019-03-20T09:45:49.253Z,20.77
2019-03-20T09:46:49.470Z,21.01
2019-03-20T09:47:51.680Z,21.01
2019-03-20T09:48:52.811Z,20.96
2019-03-20T09:49:50.559Z,20.76
2019-03-20T09:50:50.362Z,20.84
2019-03-20T09:51:52.396Z,20.25
2019-03-20T09:52:54.401Z,20.64
2019-03-20T09:53:59.416Z,20.56
2019-03-20T09:54:52.866Z,20.50
2019-03-20T09:55:52.907Z,19.54
2019-03-20T09:56:53.858Z,19.43
2019-03-20T09:57:54.429Z,19.48
2019-03-20T09:58:54.382Z,19.65
2019-03-20T09:59:52.971Z,19.70
2019-03-20T10:00:53.927Z,18.98
2019-03-20T10:01:54.853Z,19.47
2019-03-20T10:03:17.395Z,19.91
2019-03-20T10:03:57.352Z,19.69
2019-03-20T10:04:56.461Z,19.55
2019-03-20T10:05:59.345Z,19.57
2019-03-20T10:06:55.079Z,19.11
2019-03-20T10:07:54.473Z,19.39
2019-03-20T10:08:55.428Z,19.68
2019-03-20T10:09:53.865Z,19.79
2019-03-20T10:11:00.907Z,20.09
2019-03-20T10:11:57.878Z,20.09
2019-03-20T10:13:01.489Z,20.16
2019-03-20T10:13:58.460Z,20.54
2019-03-20T10:15:02.450Z,20.80
2019-03-20T10:16:01.097Z,20.87
2019-03-20T10:17:19.967Z,20.38
2019-03-20T10:17:57.172Z,19.83
2019-03-20T10:18:57.709Z,19.25
2019-03-20T10:20:22.415Z,18.79
2019-03-20T10:20:58.149Z,18.47
2019-03-20T10:21:58.663Z,17.66
2019-03-20T10:23:04.475Z,17.55
2019-03-20T10:24:19.463Z,17.99
2019-03-20T10:24:56.852Z,18.10
2019-03-20T10:26:04.909Z,18.58
2019-03-20T10:26:59.346Z,19.31
2019-03-20T10:28:00.842Z,19.58
2019-03-20T10:29:03.635Z,19.95
2019-03-20T10:29:59.343Z,20.53
2019-03-20T10:30:59.904Z,20.23
2019-03-20T10:31:58.165Z,20.41
2019-03-20T10:33:00.376Z,20.35
2019-03-20T10:34:03.850Z,20.18
2019-03-20T10:35:00.879Z,20.18
2019-03-20T10:35:58.745Z,20.42
2019-03-20T10:36:59.975Z,20.27
2019-03-20T10:38:02.254Z,20.53
2019-03-20T10:39:06.430Z,20.49
2019-03-20T10:40:02.351Z,20.59
2019-03-20T10:41:03.405Z,21.21
2019-03-20T10:42:00.031Z,19.78
2019-03-20T10:43:01.886Z,19.84
2019-03-20T10:44:04.139Z,20.09
2019-03-20T10:45:06.901Z,20.13
2019-03-20T10:46:02.396Z,20.98
2019-03-20T10:47:03.755Z,20.98
2019-03-20T10:48:04.912Z,20.20
2019-03-20T10:49:04.354Z,19.58
2019-03-20T10:50:03.908Z,20.25
2019-03-20T10:51:01.485Z,20.20
2019-03-20T10:52:09.406Z,20.84
2019-03-20T10:53:02.459Z,20.76
2019-03-20T10:54:03.852Z,20.47
2019-03-20T10:55:23.223Z,20.42
2019-03-20T10:56:07.231Z,20.86
2019-03-20T10:57:02.584Z,20.96
2019-03-20T10:58:04.412Z,21.69
2019-03-20T10:59:04.006Z,21.34
2019-03-20T11:00:03.736Z,21.39
2019-03-20T11:01:12.371Z,20.64
2019-03-20T11:02:05.408Z,20.35
2019-03-20T11:03:04.854Z,20.74
2019-03-20T11:04:05.900Z,20.72
2019-03-20T11:05:07.845Z,20.58
2019-03-20T11:06:07.857Z,19.91
2019-03-20T11:07:06.397Z,19.48
2019-03-20T11:08:06.403Z,19.86
2019-03-20T11:09:18.541Z,19.72
2019-03-20T11:10:05.142Z,19.60
2019-03-20T11:11:06.871Z,19.70
2019-03-20T11:12:09.443Z,19.79
2019-03-20T11:13:05.676Z,19.38
2019-03-20T11:14:08.441Z,19.51
2019-03-20T11:15:06.121Z,19.50
2019-03-20T11:16:11.908Z,19.87
2019-03-20T11:17:07.852Z,20.58
2019-03-20T11:18:09.443Z,20.74
2019-03-20T11:19:08.412Z,19.54
2019-03-20T11:20:10.908Z,20.10
2019-03-20T11:21:08.945Z,19.87
2019-03-20T11:22:18.219Z,20.08
2019-03-20T11:23:08.368Z,20.38
2019-03-20T11:24:09.021Z,19.18
2019-03-20T11:25:30.914Z,19.35
2019-03-20T11:26:16.451Z,18.65
2019-03-20T11:27:10.406Z,19.76
2019-03-20T11:28:11.353Z,20.58
2019-03-20T11:29:11.354Z,21.32
2019-03-20T11:30:17.709Z,21.56
2019-03-20T11:31:28.358Z,21.79
2019-03-20T11:32:14.478Z,22.02
2019-03-20T11:33:10.046Z,21.59
2019-03-20T11:34:11.546Z,21.60
2019-03-20T11:35:16.348Z,20.95
2019-03-20T11:36:11.048Z,20.15
2019-03-20T11:37:18.398Z,20.84
2019-03-20T11:38:11.870Z,21.16
2019-03-20T11:39:29.865Z,21.69
2019-03-20T11:40:14.908Z,21.32
2019-03-20T11:41:17.909Z,20.83
2019-03-20T11:42:13.404Z,21.48
2019-03-20T11:43:14.066Z,21.90
2019-03-20T11:44:13.915Z,21.24
2019-03-20T11:45:15.901Z,20.76
2019-03-20T11:46:13.900Z,21.08
2019-03-20T11:47:14.465Z,21.50
2019-03-20T11:48:14.419Z,20.86
2019-03-20T11:49:16.479Z,20.41
2019-03-20T11:50:28.981Z,19.88
2019-03-20T11:51:15.758Z,19.61
2019-03-20T11:52:26.852Z,19.88
2019-03-20T11:53:15.405Z,19.75
2019-03-20T11:54:13.755Z,18.59
2019-03-20T11:55:21.938Z,18.94
2019-03-20T11:56:16.857Z,19.39
2019-03-20T11:57:17.853Z,19.17
2019-03-20T11:58:18.450Z,19.61
2019-03-20T11:59:15.404Z,20.16
2019-03-20T12:00:23.862Z,20.21
2019-03-20T12:01:15.226Z,20.62
2019-03-20T12:02:15.497Z,20.35
2019-03-20T12:03:18.357Z,20.41
2019-03-20T12:04:22.407Z,20.71
2019-03-20T12:05:19.907Z,20.12
2019-03-20T12:06:17.952Z,20.46
2019-03-20T12:07:17.926Z,20.80
2019-03-20T12:08:18.434Z,21.08
2019-03-20T12:09:16.590Z,20.24
2019-03-20T12:10:18.552Z,20.28
2019-03-20T12:11:18.958Z,20.58
2019-03-20T12:12:17.275Z,20.76
2019-03-20T12:13:19.869Z,20.43
2019-03-20T12:14:19.402Z,20.43
2019-03-20T12:15:17.757Z,20.68
2019-03-20T12:16:19.939Z,20.99
2019-03-20T12:17:20.315Z,20.90
2019-03-20T12:18:20.899Z,20.79
2019-03-20T12:19:21.411Z,20.72
2019-03-20T12:20:21.359Z,20.23
2019-03-20T12:21:18.852Z,20.65
2019-03-20T12:22:20.988Z,20.51
2019-03-20T12:23:20.237Z,20.21
2019-03-20T12:24:21.620Z,20.39
2019-03-20T12:25:20.417Z,20.03
2019-03-20T12:26:21.409Z,19.42
2019-03-20T12:27:21.406Z,19.79
2019-03-20T12:28:23.180Z,19.75
2019-03-20T12:29:20.226Z,20.58
2019-03-20T12:30:22.409Z,20.77
2019-03-20T12:31:23.370Z,20.47
2019-03-20T12:32:22.410Z,20.49
2019-03-20T12:33:22.909Z,20.31
2019-03-20T12:34:23.732Z,20.08
2019-03-20T12:35:24.149Z,20.27
2019-03-20T12:36:23.418Z,20.59
2019-03-20T12:37:24.374Z,20.50
2019-03-20T12:38:24.871Z,20.16
2019-03-20T12:39:23.907Z,20.83
2019-03-20T12:40:29.510Z,21.29
2019-03-20T12:41:23.406Z,20.64
2019-03-20T12:42:26.413Z,20.42
2019-03-20T12:43:26.916Z,20.03
2019-03-20T12:44:23.150Z,19.51
2019-03-20T12:45:23.367Z,19.43
2019-03-20T12:46:41.021Z,19.50
2019-03-20T12:47:25.870Z,19.63
2019-03-20T12:48:26.183Z,20.62
2019-03-20T12:49:25.407Z,20.89
2019-03-20T12:50:27.958Z,20.38
2019-03-20T12:51:26.410Z,20.84
2019-03-20T12:52:26.919Z,20.23
2019-03-20T12:53:24.730Z,20.13
2019-03-20T12:54:26.967Z,19.90
2019-03-20T12:55:26.919Z,19.68
2019-03-20T12:56:26.865Z,19.29
2019-03-20T12:57:27.419Z,19.39
2019-03-20T12:58:27.460Z,19.53
2019-03-20T12:59:25.954Z,19.98
2019-03-20T13:00:29.931Z,19.79
2019-03-20T13:01:26.402Z,19.93
2019-03-20T13:02:30.456Z,20.27
2019-03-20T13:03:30.979Z,20.77
2019-03-20T13:04:26.986Z,20.72